createdAt,value
2023-01-10T00:00:35.549Z,95.91
2023-01-10T00:03:04.318Z,96.30
2023-01-10T00:05:31.893Z,96.89
2023-01-10T00:07:59.261Z,97.13
2023-01-10T00:10:26.142Z,96.63
2023-01-10T00:13:11.791Z,96.96
2023-01-10T00:15:39.238Z,96.42
2023-01-10T00:18:06.430Z,96.42
2023-01-10T00:20:33.254Z,96.50
2023-01-10T00:23:00.214Z,96.36
2023-01-10T00:25:27.486Z,96.76
2023-01-10T00:28:04.634Z,97.76
2023-01-10T00:30:34.018Z,98.21
2023-01-10T00:33:01.184Z,98.27
2023-01-10T00:35:28.255Z,98.20
2023-01-10T00:38:01.419Z,98.38
2023-01-10T00:40:28.354Z,98.57
2023-01-10T00:43:13.959Z,98.89
2023-01-10T00:45:40.821Z,98.21
2023-01-10T00:48:07.716Z,98.49
2023-01-10T00:50:34.759Z,98.97
2023-01-10T00:53:01.693Z,99.41
2023-01-10T00:55:28.726Z,99.62
2023-01-10T00:57:55.567Z,99.11
2023-01-10T01:00:22.652Z,99.18
2023-01-10T01:02:51.759Z,99.93
2023-01-10T01:05:19.423Z,100.00
2023-01-10T01:07:51.303Z,100.00
2023-01-10T01:10:28.142Z,100.00
2023-01-10T01:12:57.234Z,100.00
2023-01-10T01:15:25.187Z,100.00
2023-01-10T01:17:52.125Z,99.99
2023-01-10T01:20:21.063Z,99.38
2023-01-10T01:22:48.469Z,99.28
2023-01-10T01:25:15.711Z,99.20
2023-01-10T01:27:42.695Z,100.00
2023-01-10T01:30:11.379Z,99.56
2023-01-10T01:32:38.730Z,99.41
2023-01-10T01:35:07.492Z,99.78
2023-01-10T01:37:34.457Z,100.00
2023-01-10T01:40:01.330Z,100.00
2023-01-10T01:42:35.465Z,100.00
2023-01-10T01:45:08.631Z,100.00
2023-01-10T01:47:57.316Z,100.00
2023-01-10T01:50:42.747Z,99.80
2023-01-10T01:53:14.882Z,100.00
2023-01-10T01:55:43.881Z,99.96
2023-01-10T01:58:18.201Z,100.00
2023-01-10T02:00:45.227Z,100.00
2023-01-10T02:03:14.373Z,100.00
2023-01-10T02:05:44.480Z,100.00
2023-01-10T02:08:12.818Z,100.00
2023-01-10T02:11:01.263Z,100.00
2023-01-10T02:13:28.517Z,100.00
2023-01-10T02:15:55.378Z,100.00
2023-01-10T02:18:23.551Z,100.00
2023-01-10T02:20:50.378Z,100.00
2023-01-10T02:23:36.328Z,100.00
2023-01-10T02:26:22.786Z,100.00
2023-01-10T02:29:08.823Z,100.00
2023-01-10T02:31:57.288Z,100.00
2023-01-10T02:35:11.997Z,100.00
2023-01-10T02:37:59.898Z,100.00
2023-01-10T02:40:38.884Z,100.00
2023-01-10T02:43:19.874Z,100.00
2023-01-10T02:45:53.345Z,100.00
2023-01-10T02:48:21.867Z,100.00
2023-01-10T02:51:07.163Z,100.00
2023-01-10T02:53:44.953Z,100.00
2023-01-10T02:56:36.862Z,100.00
2023-01-10T02:59:21.488Z,100.00
2023-01-10T03:02:05.670Z,100.00
2023-01-10T03:04:46.126Z,100.00
2023-01-10T03:07:28.059Z,100.00
2023-01-10T03:10:23.763Z,100.00
2023-01-10T03:13:05.053Z,100.00
2023-01-10T03:15:37.170Z,100.00
2023-01-10T03:18:10.672Z,100.00
2023-01-10T03:20:39.861Z,100.00
2023-01-10T03:23:07.257Z,100.00
2023-01-10T03:25:38.160Z,100.00
2023-01-10T03:28:09.925Z,100.00
2023-01-10T03:30:36.754Z,100.00
2023-01-10T03:33:04.776Z,100.00
2023-01-10T03:36:27.502Z,100.00
2023-01-10T03:38:57.337Z,100.00
2023-01-10T03:41:42.676Z,100.00
2023-01-10T03:44:44.473Z,100.00
2023-01-10T03:47:20.335Z,100.00
2023-01-10T03:49:54.129Z,100.00
2023-01-10T03:52:22.206Z,100.00
2023-01-10T03:54:49.380Z,100.00
2023-01-10T03:57:21.792Z,100.00
2023-01-10T03:59:55.225Z,100.00
2023-01-10T04:02:22.127Z,100.00
2023-01-10T04:04:49.007Z,100.00
2023-01-10T04:07:15.964Z,100.00
2023-01-10T04:09:42.836Z,100.00
2023-01-10T04:12:09.828Z,100.00
2023-01-10T04:14:37.374Z,100.00
2023-01-10T04:17:59.075Z,100.00
2023-01-10T04:20:34.633Z,100.00
2023-01-10T04:23:01.671Z,100.00
2023-01-10T04:25:28.610Z,100.00
2023-01-10T04:27:55.510Z,100.00
2023-01-10T04:30:22.768Z,100.00
2023-01-10T04:32:49.711Z,100.00
2023-01-10T04:35:16.772Z,100.00
2023-01-10T04:37:43.695Z,100.00
2023-01-10T04:40:11.264Z,100.00
2023-01-10T04:42:38.296Z,100.00
2023-01-10T04:45:05.760Z,100.00
2023-01-10T04:47:32.675Z,100.00
2023-01-10T04:49:59.668Z,100.00
2023-01-10T04:52:28.294Z,100.00
2023-01-10T04:54:55.233Z,100.00
2023-01-10T04:57:22.122Z,100.00
2023-01-10T04:59:48.975Z,100.00
2023-01-10T05:02:17.307Z,100.00
2023-01-10T05:04:44.279Z,100.00
2023-01-10T05:07:11.170Z,100.00
2023-01-10T05:09:38.004Z,100.00
2023-01-10T05:12:05.127Z,100.00
2023-01-10T05:14:32.049Z,100.00
2023-01-10T05:16:59.245Z,100.00
2023-01-10T05:19:26.064Z,100.00
2023-01-10T05:21:53.382Z,100.00
2023-01-10T05:24:20.408Z,100.00
2023-01-10T05:26:47.350Z,100.00
2023-01-10T05:29:17.077Z,100.00
2023-01-10T05:31:44.011Z,100.00
2023-01-10T05:34:13.948Z,100.00
2023-01-10T05:36:41.187Z,100.00
2023-01-10T05:39:08.126Z,100.00
2023-01-10T05:41:35.099Z,100.00
2023-01-10T05:44:02.022Z,100.00
2023-01-10T05:46:29.572Z,100.00
2023-01-10T05:48:56.460Z,100.00
2023-01-10T05:51:23.433Z,100.00
2023-01-10T05:53:50.447Z,100.00
2023-01-10T05:56:17.919Z,100.00
2023-01-10T05:58:47.269Z,100.00
2023-01-10T06:01:16.794Z,100.00
2023-01-10T06:03:44.089Z,100.00
2023-01-10T06:06:11.084Z,100.00
2023-01-10T06:08:38.207Z,100.00
2023-01-10T06:11:06.043Z,100.00
2023-01-10T06:13:33.637Z,100.00
2023-01-10T06:16:00.640Z,100.00
2023-01-10T06:18:27.794Z,100.00
2023-01-10T06:20:54.875Z,100.00
2023-01-10T06:23:22.000Z,100.00
2023-01-10T06:25:49.177Z,100.00
2023-01-10T06:28:16.149Z,100.00
2023-01-10T06:30:43.725Z,100.00
2023-01-10T06:33:12.504Z,100.00
2023-01-10T06:35:39.889Z,100.00
2023-01-10T06:38:06.849Z,100.00
2023-01-10T06:40:34.000Z,100.00
2023-01-10T06:43:00.831Z,100.00
2023-01-10T06:45:27.976Z,100.00
2023-01-10T06:47:54.983Z,100.00
2023-01-10T06:50:22.524Z,100.00
2023-01-10T06:53:00.344Z,100.00
2023-01-10T06:55:28.598Z,100.00
2023-01-10T06:58:00.247Z,100.00
2023-01-10T07:00:29.244Z,100.00
2023-01-10T07:03:00.946Z,100.00
2023-01-10T07:05:29.203Z,100.00
2023-01-10T07:07:58.041Z,100.00
2023-01-10T07:10:25.083Z,100.00
2023-01-10T07:12:52.075Z,100.00
2023-01-10T07:15:18.917Z,100.00
2023-01-10T07:17:45.866Z,100.00
2023-01-10T07:20:13.337Z,100.00
2023-01-10T07:22:40.475Z,100.00
2023-01-10T07:25:07.809Z,100.00
2023-01-10T07:27:34.902Z,100.00
2023-01-10T07:30:02.012Z,100.00
2023-01-10T07:32:28.977Z,100.00
2023-01-10T07:34:56.220Z,100.00
2023-01-10T07:37:23.205Z,100.00
2023-01-10T07:39:50.518Z,100.00
2023-01-10T07:42:17.368Z,100.00
2023-01-10T07:44:44.299Z,100.00
2023-01-10T07:47:11.409Z,100.00
2023-01-10T07:49:38.394Z,100.00
2023-01-10T07:52:07.951Z,100.00
2023-01-10T07:54:36.173Z,100.00
2023-01-10T07:57:03.276Z,100.00
2023-01-10T07:59:30.381Z,100.00
2023-01-10T08:01:57.326Z,100.00
2023-01-10T08:04:24.349Z,100.00
2023-01-10T08:06:51.828Z,100.00
2023-01-10T08:09:18.787Z,100.00
2023-01-10T08:11:45.698Z,100.00
2023-01-10T08:14:12.616Z,100.00
2023-01-10T08:16:39.494Z,100.00
2023-01-10T08:19:06.581Z,100.00
2023-01-10T08:21:33.704Z,100.00
2023-01-10T08:24:00.652Z,100.00
2023-01-10T08:26:27.719Z,100.00
2023-01-10T08:28:54.652Z,100.00
2023-01-10T08:31:21.624Z,100.00
2023-01-10T08:33:48.719Z,100.00
2023-01-10T08:36:20.690Z,100.00
2023-01-10T08:38:48.374Z,100.00
2023-01-10T08:41:15.327Z,100.00
2023-01-10T08:43:42.718Z,100.00
2023-01-10T08:46:09.776Z,100.00
2023-01-10T08:48:36.941Z,100.00
2023-01-10T08:51:10.244Z,100.00
2023-01-10T08:53:39.499Z,100.00
2023-01-10T08:56:06.840Z,100.00
2023-01-10T08:58:34.087Z,100.00
2023-01-10T09:01:04.943Z,100.00
2023-01-10T09:03:31.935Z,100.00
2023-01-10T09:06:00.164Z,100.00
2023-01-10T09:08:27.110Z,100.00
2023-01-10T09:10:54.592Z,100.00
2023-01-10T09:13:21.454Z,100.00
2023-01-10T09:15:49.026Z,100.00
2023-01-10T09:18:15.982Z,100.00
2023-01-10T09:20:43.546Z,100.00
2023-01-10T09:23:20.263Z,100.00
2023-01-10T09:25:48.478Z,100.00
2023-01-10T09:28:16.274Z,100.00
2023-01-10T09:30:44.517Z,100.00
2023-01-10T09:33:13.581Z,100.00
2023-01-10T09:35:41.873Z,100.00
2023-01-10T09:38:12.708Z,100.00
2023-01-10T09:41:07.490Z,100.00
2023-01-10T09:44:01.120Z,100.00
2023-01-10T09:46:43.431Z,100.00
2023-01-10T09:49:29.088Z,100.00
2023-01-10T09:51:59.229Z,100.00
2023-01-10T09:54:33.782Z,100.00
2023-01-10T09:57:02.782Z,100.00
2023-01-10T09:59:41.695Z,100.00
2023-01-10T10:02:40.656Z,100.00
2023-01-10T10:05:18.873Z,100.00
2023-01-10T10:07:53.840Z,100.00
2023-01-10T10:10:39.366Z,100.00
2023-01-10T10:13:23.262Z,100.00
2023-01-10T10:16:09.274Z,100.00
2023-01-10T10:18:54.647Z,100.00
2023-01-10T10:21:39.808Z,100.00
2023-01-10T10:24:41.640Z,99.57
2023-01-10T10:27:17.473Z,99.16
2023-01-10T10:29:50.383Z,98.06
2023-01-10T10:32:29.591Z,98.35
2023-01-10T10:35:07.341Z,99.16
2023-01-10T10:37:41.276Z,98.71
2023-01-10T10:40:31.990Z,98.48
2023-01-10T10:43:11.687Z,97.82
2023-01-10T10:45:44.473Z,98.95
2023-01-10T10:48:34.480Z,98.39
2023-01-10T10:51:25.801Z,98.21
2023-01-10T10:53:54.754Z,99.02
2023-01-10T10:56:24.800Z,98.81
2023-01-10T10:58:55.615Z,99.31
2023-01-10T11:01:26.382Z,99.31
2023-01-10T11:04:03.731Z,98.37
2023-01-10T11:06:34.302Z,99.22
2023-01-10T11:09:04.709Z,98.83
2023-01-10T11:11:39.814Z,98.99
2023-01-10T11:14:08.803Z,98.75
2023-01-10T11:16:42.092Z,99.11
2023-01-10T11:19:11.816Z,98.94
2023-01-10T11:21:41.308Z,98.03
2023-01-10T11:24:20.500Z,97.37
2023-01-10T11:26:48.338Z,96.88
2023-01-10T11:29:17.434Z,97.03
2023-01-10T11:31:47.005Z,96.99
2023-01-10T11:34:33.361Z,97.22
2023-01-10T11:37:01.533Z,96.47
2023-01-10T11:39:30.159Z,95.77
2023-01-10T11:41:59.689Z,95.49
2023-01-10T11:44:30.024Z,94.86
2023-01-10T11:47:01.815Z,94.32
2023-01-10T11:49:37.764Z,95.01
2023-01-10T11:52:26.654Z,95.04
2023-01-10T11:54:58.378Z,95.17
2023-01-10T11:57:28.673Z,94.98
2023-01-10T12:00:07.513Z,94.50
2023-01-10T12:02:42.814Z,94.88
2023-01-10T12:05:20.495Z,94.37
2023-01-10T12:07:54.309Z,94.42
2023-01-10T12:10:23.271Z,94.42
2023-01-10T12:12:58.367Z,94.30
2023-01-10T12:15:26.999Z,94.74
2023-01-10T12:17:57.114Z,94.64
2023-01-10T12:20:28.735Z,95.53
2023-01-10T12:23:08.282Z,95.60
2023-01-10T12:25:39.037Z,95.17
2023-01-10T12:28:17.827Z,94.92
2023-01-10T12:30:50.481Z,95.38
2023-01-10T12:33:23.025Z,95.17
2023-01-10T12:36:13.118Z,96.13
2023-01-10T12:39:07.775Z,95.41
2023-01-10T12:42:00.303Z,96.04
2023-01-10T12:44:42.132Z,95.74
2023-01-10T12:47:30.813Z,95.79
2023-01-10T12:50:05.945Z,96.55
2023-01-10T12:53:07.054Z,97.25
2023-01-10T12:55:40.996Z,97.34
2023-01-10T12:58:23.334Z,97.72
2023-01-10T13:00:54.575Z,97.63
2023-01-10T13:03:25.844Z,98.19
2023-01-10T13:05:54.376Z,99.44
2023-01-10T13:08:25.872Z,100.00
2023-01-10T13:10:53.819Z,100.00
2023-01-10T13:13:52.322Z,100.00
2023-01-10T13:16:52.862Z,100.00
2023-01-10T13:19:28.789Z,100.00
2023-01-10T13:22:17.712Z,100.00
2023-01-10T13:24:56.370Z,100.00
2023-01-10T13:27:33.396Z,100.00
2023-01-10T13:30:01.534Z,100.00
2023-01-10T13:32:32.911Z,100.00
2023-01-10T13:35:19.984Z,100.00
2023-01-10T13:37:54.333Z,100.00
2023-01-10T13:40:28.576Z,100.00
2023-01-10T13:43:36.885Z,100.00
2023-01-10T13:46:19.468Z,100.00
2023-01-10T13:48:49.450Z,100.00
2023-01-10T13:51:21.781Z,100.00
2023-01-10T13:53:57.735Z,100.00
2023-01-10T13:56:36.497Z,100.00
2023-01-10T13:59:28.775Z,100.00
2023-01-10T14:02:18.824Z,100.00
2023-01-10T14:04:55.826Z,100.00
2023-01-10T14:07:30.563Z,100.00
2023-01-10T14:10:06.899Z,100.00
2023-01-10T14:12:57.225Z,100.00
2023-01-10T14:15:37.605Z,100.00
2023-01-10T14:18:32.359Z,100.00
2023-01-10T14:21:02.804Z,100.00
2023-01-10T14:23:49.772Z,100.00
2023-01-10T14:26:27.176Z,100.00
2023-01-10T14:28:54.260Z,100.00
2023-01-10T14:31:26.462Z,100.00
2023-01-10T14:33:54.166Z,100.00
2023-01-10T14:36:37.353Z,100.00
2023-01-10T14:39:07.784Z,100.00
2023-01-10T14:41:42.746Z,100.00
2023-01-10T14:44:45.895Z,100.00
2023-01-10T14:47:29.936Z,100.00
2023-01-10T14:50:06.815Z,100.00
2023-01-10T14:52:34.151Z,100.00
2023-01-10T14:55:16.982Z,100.00
2023-01-10T14:58:01.932Z,100.00
2023-01-10T15:00:36.562Z,100.00
2023-01-10T15:03:04.509Z,100.00
2023-01-10T15:05:37.549Z,100.00
2023-01-10T15:08:24.092Z,100.00
2023-01-10T15:10:54.874Z,100.00
2023-01-10T15:13:28.269Z,100.00
2023-01-10T15:15:56.582Z,100.00
2023-01-10T15:18:45.921Z,100.00
2023-01-10T15:21:15.404Z,100.00
2023-01-10T15:23:44.546Z,100.00
2023-01-10T15:26:27.687Z,100.00
2023-01-10T15:29:20.541Z,100.00
2023-01-10T15:31:47.574Z,100.00
2023-01-10T15:34:29.895Z,99.27
2023-01-10T15:36:58.495Z,99.38
2023-01-10T15:39:29.428Z,98.41
2023-01-10T15:42:00.678Z,98.89
2023-01-10T15:44:39.722Z,98.64
2023-01-10T15:47:37.067Z,99.95
2023-01-10T15:50:21.291Z,100.00
2023-01-10T15:52:57.639Z,100.00
2023-01-10T15:55:46.699Z,100.00
2023-01-10T15:58:19.124Z,100.00
2023-01-10T16:00:47.867Z,100.00
2023-01-10T16:03:36.986Z,100.00
2023-01-10T16:06:09.781Z,100.00
2023-01-10T16:08:38.784Z,100.00
2023-01-10T16:11:08.927Z,100.00
2023-01-10T16:13:37.521Z,100.00
2023-01-10T16:16:15.316Z,100.00
2023-01-10T16:18:42.518Z,100.00
2023-01-10T16:21:11.698Z,100.00
2023-01-10T16:23:46.045Z,100.00
2023-01-10T16:26:14.816Z,100.00
2023-01-10T16:28:41.777Z,100.00
2023-01-10T16:31:14.743Z,100.00
2023-01-10T16:33:42.216Z,100.00
2023-01-10T16:36:18.656Z,100.00
2023-01-10T16:38:45.626Z,100.00
2023-01-10T16:41:33.005Z,100.00
2023-01-10T16:44:00.866Z,100.00
2023-01-10T16:46:27.952Z,100.00
2023-01-10T16:48:55.082Z,100.00
2023-01-10T16:51:32.420Z,100.00
2023-01-10T16:53:59.446Z,100.00
2023-01-10T16:56:28.633Z,99.98
2023-01-10T16:58:55.958Z,98.96
2023-01-10T17:01:28.821Z,98.12
2023-01-10T17:03:56.560Z,97.61
2023-01-10T17:06:23.611Z,97.64
2023-01-10T17:08:50.650Z,96.58
2023-01-10T17:11:22.899Z,96.31
2023-01-10T17:13:50.004Z,95.27
2023-01-10T17:16:19.403Z,94.51
2023-01-10T17:18:47.579Z,94.42
2023-01-10T17:21:22.161Z,94.44
2023-01-10T17:23:49.982Z,93.74
2023-01-10T17:26:18.620Z,93.40
2023-01-10T17:28:46.699Z,93.11
2023-01-10T17:31:13.681Z,92.92
2023-01-10T17:33:40.613Z,92.53
2023-01-10T17:36:08.054Z,92.07
2023-01-10T17:38:34.864Z,92.62
2023-01-10T17:41:02.263Z,92.38
2023-01-10T17:43:30.751Z,91.68
2023-01-10T17:45:59.078Z,92.21
2023-01-10T17:48:26.634Z,92.34
2023-01-10T17:50:59.406Z,92.40
2023-01-10T17:53:26.667Z,93.05
2023-01-10T17:55:53.994Z,92.26
2023-01-10T17:58:21.486Z,92.55
2023-01-10T18:00:49.030Z,92.72
2023-01-10T18:03:16.682Z,92.50
2023-01-10T18:05:54.891Z,91.85
2023-01-10T18:08:22.708Z,91.88
2023-01-10T18:10:50.132Z,91.73
2023-01-10T18:13:18.781Z,92.11
2023-01-10T18:15:49.405Z,91.94
2023-01-10T18:18:18.374Z,91.64
2023-01-10T18:20:45.670Z,91.95
2023-01-10T18:23:23.076Z,91.50
2023-01-10T18:26:00.158Z,92.10
2023-01-10T18:28:40.664Z,91.36
2023-01-10T18:31:11.050Z,91.94
2023-01-10T18:33:39.230Z,92.72
2023-01-10T18:36:07.903Z,92.82
2023-01-10T18:38:36.976Z,90.70
2023-01-10T18:41:04.583Z,91.13
2023-01-10T18:43:33.982Z,91.09
2023-01-10T18:46:14.215Z,91.67
2023-01-10T18:48:41.975Z,90.42
2023-01-10T18:51:12.970Z,91.09
2023-01-10T18:53:42.289Z,89.95
2023-01-10T18:56:10.362Z,91.13
2023-01-10T18:58:41.935Z,91.82
2023-01-10T19:01:16.860Z,92.65
2023-01-10T19:03:44.732Z,93.83
2023-01-10T19:06:17.271Z,94.81
2023-01-10T19:08:46.006Z,95.75
2023-01-10T19:11:16.773Z,95.52
2023-01-10T19:13:45.112Z,96.59
2023-01-10T19:16:13.915Z,96.25
2023-01-10T19:18:41.540Z,98.18
2023-01-10T19:21:16.051Z,98.74
2023-01-10T19:23:45.009Z,98.24
2023-01-10T19:26:13.143Z,98.79
2023-01-10T19:28:40.989Z,98.57
2023-01-10T19:31:08.467Z,98.80
2023-01-10T19:33:37.939Z,98.85
2023-01-10T19:36:06.989Z,98.43
2023-01-10T19:38:34.705Z,98.91
2023-01-10T19:41:02.063Z,99.53
2023-01-10T19:43:29.541Z,99.60
2023-01-10T19:45:56.902Z,98.43
2023-01-10T19:48:24.696Z,98.53
2023-01-10T19:50:52.388Z,99.26
2023-01-10T19:53:24.066Z,98.92
2023-01-10T19:55:59.217Z,99.57
2023-01-10T19:58:27.147Z,99.62
2023-01-10T20:00:54.284Z,99.83
2023-01-10T20:03:21.586Z,100.00
2023-01-10T20:05:48.589Z,100.00
2023-01-10T20:08:20.701Z,100.00
2023-01-10T20:10:48.106Z,100.00
2023-01-10T20:13:15.655Z,100.00
2023-01-10T20:15:43.572Z,100.00
2023-01-10T20:18:10.650Z,100.00
2023-01-10T20:20:38.301Z,100.00
2023-01-10T20:23:07.156Z,100.00
2023-01-10T20:25:39.087Z,100.00
2023-01-10T20:28:16.352Z,100.00
2023-01-10T20:30:45.159Z,100.00
2023-01-10T20:33:16.106Z,100.00
2023-01-10T20:35:45.618Z,100.00
2023-01-10T20:38:13.063Z,100.00
2023-01-10T20:40:43.602Z,100.00
2023-01-10T20:43:12.131Z,100.00
2023-01-10T20:45:42.833Z,100.00
2023-01-10T20:48:10.440Z,100.00
2023-01-10T20:50:38.347Z,100.00
2023-01-10T20:53:05.362Z,100.00
2023-01-10T20:55:35.287Z,100.00
2023-01-10T20:58:03.061Z,100.00
2023-01-10T21:00:30.913Z,100.00
2023-01-10T21:02:58.059Z,100.00
2023-01-10T21:05:25.120Z,100.00
2023-01-10T21:07:52.052Z,100.00
2023-01-10T21:10:19.056Z,100.00
2023-01-10T21:12:46.101Z,100.00
2023-01-10T21:15:13.147Z,100.00
2023-01-10T21:17:42.038Z,100.00
2023-01-10T21:20:10.541Z,100.00
2023-01-10T21:22:37.478Z,100.00
2023-01-10T21:25:04.745Z,100.00
2023-01-10T21:27:31.962Z,100.00
2023-01-10T21:29:59.273Z,100.00
2023-01-10T21:32:26.513Z,100.00
2023-01-10T21:34:53.377Z,100.00
2023-01-10T21:37:20.343Z,100.00
2023-01-10T21:39:47.249Z,100.00
2023-01-10T21:42:32.477Z,100.00
2023-01-10T21:44:59.341Z,100.00
2023-01-10T21:47:26.313Z,100.00
2023-01-10T21:49:53.265Z,100.00
2023-01-10T21:52:20.473Z,100.00
2023-01-10T21:54:47.292Z,100.00
2023-01-10T21:57:14.228Z,100.00
2023-01-10T21:59:41.725Z,100.00
2023-01-10T22:02:15.932Z,100.00
2023-01-10T22:04:53.412Z,100.00
2023-01-10T22:07:28.344Z,100.00
2023-01-10T22:09:55.402Z,100.00
2023-01-10T22:12:24.302Z,100.00
2023-01-10T22:14:51.115Z,100.00
2023-01-10T22:17:18.154Z,100.00
2023-01-10T22:19:45.130Z,100.00
2023-01-10T22:22:12.261Z,100.00
2023-01-10T22:24:41.957Z,100.00
2023-01-10T22:27:08.984Z,100.00
2023-01-10T22:29:36.004Z,100.00
2023-01-10T22:32:03.024Z,100.00
2023-01-10T22:34:29.918Z,100.00
2023-01-10T22:36:56.933Z,100.00
2023-01-10T22:39:23.973Z,100.00
2023-01-10T22:41:53.500Z,100.00
2023-01-10T22:44:22.972Z,100.00
2023-01-10T22:46:51.720Z,100.00
2023-01-10T22:49:18.988Z,100.00
2023-01-10T22:51:46.173Z,100.00
2023-01-10T22:54:15.886Z,100.00
2023-01-10T22:56:43.807Z,100.00
2023-01-10T22:59:11.430Z,100.00
2023-01-10T23:01:39.109Z,100.00
2023-01-10T23:04:06.296Z,100.00
2023-01-10T23:06:33.292Z,100.00
2023-01-10T23:09:00.410Z,100.00
2023-01-10T23:11:27.341Z,100.00
2023-01-10T23:13:54.206Z,100.00
2023-01-10T23:16:28.598Z,100.00
2023-01-10T23:18:57.556Z,100.00
2023-01-10T23:21:25.995Z,100.00
2023-01-10T23:23:53.069Z,100.00
2023-01-10T23:26:19.981Z,100.00
2023-01-10T23:28:49.443Z,100.00
2023-01-10T23:31:19.873Z,100.00
2023-01-10T23:33:47.825Z,100.00
2023-01-10T23:36:15.199Z,100.00
2023-01-10T23:38:42.575Z,100.00
2023-01-10T23:41:09.763Z,100.00
2023-01-10T23:43:37.863Z,100.00
2023-01-10T23:46:06.096Z,100.00
2023-01-10T23:48:33.349Z,100.00
2023-01-10T23:51:00.282Z,100.00
2023-01-10T23:53:27.348Z,100.00
2023-01-10T23:55:54.479Z,100.00
2023-01-10T23:58:21.444Z,100.00
